Time;durP1;ratioP1;P1;durP2;ratioP2;P2;SDS_P1;SDS_P2;PMS_P1;PMS_P2;Temp;Humidity;BMP_temperature;BMP_pressure;BME280_temperature;BME280_humidity;BME280_pressure;Samples;Min_cycle;Max_cycle;Signal;HPM_P1;HPM_P2
2022/11/05 00:10:46;;;;;;;49.90;24.40;;;;;;;8.29;91.02;99791.98;106523;1252;98475;-68
2022/11/05 00:18:41;;;;;;;47.20;26.00;;;;;;;8.26;91.38;99785.35;106439;1246;137955;-68
2022/11/05 00:25:12;;;;;;;45.40;24.60;;;;;;;8.25;91.44;99787.90;106540;1240;96415;-68
2022/11/05 00:26:38;;;;;;;48.80;26.00;;;;;;;8.25;91.63;99785.23;106481;1250;107811;-68
2022/11/05 00:29:04;;;;;;;46.20;24.40;;;;;;;8.26;91.68;99788.41;106527;1239;97089;-68
2022/11/05 00:31:31;;;;;;;44.20;22.60;;;;;;;8.28;91.73;99791.33;106380;1239;139187;-68
2022/11/05 00:33:57;;;;;;;48.50;25.10;;;;;;;8.28;91.64;99795.08;106641;1256;99118;-68
2022/11/05 00:36:22;;;;;;;48.30;25.00;;;;;;;8.26;91.79;99798.17;106441;1250;138572;-68
2022/11/05 00:38:48;;;;;;;48.40;25.40;;;;;;;8.27;91.83;99799.56;106613;1256;95294;-68
2022/11/05 00:41:13;;;;;;;44.90;23.00;;;;;;;8.25;91.88;99799.11;106517;1244;96268;-68
2022/11/05 00:46:22;;;;;;;42.60;23.30;;;;;;;8.22;92.26;99802.45;106476;1237;97667;-69
2022/11/05 00:51:31;;;;;;;46.50;25.50;;;;;;;8.24;92.53;99804.69;106480;1242;111070;-69
2022/11/05 00:53:57;;;;;;;52.90;26.50;;;;;;;8.26;92.60;99803.91;106375;1247;138955;-69
2022/11/05 00:56:24;;;;;;;39.20;22.80;;;;;;;8.27;92.58;99808.63;106657;1239;96363;-69
2022/11/05 00:58:49;;;;;;;44.20;22.70;;;;;;;8.25;92.69;99815.50;106592;1246;96422;-70
2022/11/05 01:01:14;;;;;;;51.20;25.40;;;;;;;8.21;92.77;99820.50;106397;1240;140755;-70
2022/11/05 01:03:40;;;;;;;45.40;24.20;;;;;;;8.19;92.91;99822.71;106625;1253;96352;-70
2022/11/05 01:06:15;;;;;;;38.90;22.50;;;;;;;8.19;93.03;99824.86;106425;1251;138152;-68
2022/11/05 01:08:43;;;;;;;41.80;23.50;;;;;;;8.18;93.01;99824.36;106518;1252;95616;-69
2022/11/05 01:11:31;;;;;;;41.90;24.80;;;;;;;8.19;93.18;99821.30;106529;1245;110198;-69
2022/11/05 01:14:02;;;;;;;46.30;25.70;;;;;;;8.20;93.20;99824.07;106497;1241;138388;-69
2022/11/05 01:16:28;;;;;;;40.00;23.50;;;;;;;8.21;93.20;99828.11;106532;1245;106550;-69
2022/11/05 01:18:53;;;;;;;47.30;25.20;;;;;;;8.20;93.57;99828.20;106431;1246;139051;-69
2022/11/05 01:21:18;;;;;;;46.10;25.90;;;;;;;8.18;93.57;99831.67;106623;1246;95071;-69
2022/11/05 01:23:44;;;;;;;48.10;24.10;;;;;;;8.20;93.82;99831.59;106485;1245;138369;-70
2022/11/05 01:26:09;;;;;;;44.90;24.50;;;;;;;8.19;93.76;99829.66;106563;1253;96967;-70
2022/11/05 01:28:34;;;;;;;45.00;25.10;;;;;;;8.21;93.84;99829.90;106564;1253;95175;-70
2022/11/05 01:30:59;;;;;;;40.60;22.80;;;;;;;8.22;93.88;99831.84;106391;1242;139051;-68
2022/11/05 01:33:26;;;;;;;43.10;23.80;;;;;;;8.23;93.83;99829.64;106596;1251;96370;-69
2022/11/05 01:35:52;;;;;;;44.40;23.90;;;;;;;8.23;93.76;99832.85;106438;1248;138574;-69
2022/11/05 01:38:18;;;;;;;42.70;23.80;;;;;;;8.22;93.78;99834.52;106576;1244;94947;-69
2022/11/05 01:40:44;;;;;;;42.60;23.80;;;;;;;8.20;93.75;99840.85;106563;1240;96263;-70
2022/11/05 01:43:15;;;;;;;44.30;24.20;;;;;;;8.18;93.79;99842.34;106411;1239;139112;-69
2022/11/05 01:45:43;;;;;;;41.60;21.90;;;;;;;8.16;94.10;99843.66;106427;1241;96314;-69
2022/11/05 01:48:19;;;;;;;43.20;22.20;;;;;;;8.16;94.11;99843.83;106461;1252;138889;-69
2022/11/05 01:51:02;;;;;;;44.20;23.20;;;;;;;8.18;94.19;99853.38;106446;1242;109750;-69
2022/11/05 01:53:37;;;;;;;36.80;21.20;;;;;;;8.17;94.22;99865.16;106522;1240;97737;-69
2022/11/05 01:56:06;;;;;;;37.80;22.40;;;;;;;8.16;94.48;99868.06;106445;1246;109199;-69
2022/11/05 01:58:43;;;;;;;37.60;21.60;;;;;;;8.14;94.60;99870.63;106543;1251;96284;-69
2022/11/05 02:01:10;;;;;;;37.60;20.60;;;;;;;8.14;94.62;99878.80;106375;1240;138140;-70
2022/11/05 02:03:35;;;;;;;34.20;20.20;;;;;;;8.15;94.58;99882.67;106506;1244;96388;-70
2022/11/05 02:06:01;;;;;;;37.30;20.40;;;;;;;8.16;94.57;99889.05;106418;1260;138137;-70
2022/11/05 02:08:54;;;;;;;36.40;19.60;;;;;;;8.16;94.67;99890.99;106587;1251;96319;-71
2022/11/05 02:11:20;;;;;;;32.40;18.60;;;;;;;8.16;94.70;99894.75;106502;1253;96488;-71
2022/11/05 02:13:47;;;;;;;28.70;17.50;;;;;;;8.17;94.68;99890.80;106440;1251;137844;-71
2022/11/05 02:16:30;;;;;;;28.40;16.00;;;;;;;8.16;94.66;99895.98;106519;1239;95145;-70
2022/11/05 02:19:19;;;;;;;24.00;14.80;;;;;;;8.15;94.68;99896.02;106375;1239;137885;-70
2022/11/05 02:22:22;;;;;;;29.80;16.90;;;;;;;8.15;94.75;99897.98;106461;1251;95148;-68
2022/11/05 02:25:26;;;;;;;29.20;16.80;;;;;;;8.15;94.70;99896.02;106375;1245;138194;-70
2022/11/05 02:28:06;;;;;;;28.10;17.10;;;;;;;8.15;94.91;99901.01;106521;1258;109443;-69
2022/11/05 02:30:37;;;;;;;31.60;17.90;;;;;;;8.17;94.90;99903.77;106252;1239;138566;-68
2022/11/05 02:33:15;;;;;;;25.90;15.80;;;;;;;8.17;94.84;99904.49;106578;1256;107403;-68
2022/11/05 02:35:55;;;;;;;28.90;16.20;;;;;;;8.17;94.78;99903.42;106416;1239;138434;-68
2022/11/05 02:38:39;;;;;;;26.70;16.00;;;;;;;8.15;94.87;99907.59;106483;1238;96379;-68
2022/11/05 02:41:17;;;;;;;25.00;16.20;;;;;;;8.16;95.01;99905.98;106457;1245;109607;-68
2022/11/05 02:43:58;;;;;;;22.50;15.00;;;;;;;8.15;95.13;99904.02;106414;1250;138262;-69
2022/11/05 02:46:26;;;;;;;28.10;16.10;;;;;;;8.15;95.07;99906.87;106503;1245;107323;-70
2022/11/05 02:49:15;;;;;;;27.00;15.80;;;;;;;8.14;95.07;99906.58;106425;1242;137952;-69
2022/11/05 02:51:52;;;;;;;25.10;15.70;;;;;;;8.14;95.16;99904.08;106534;1239;97455;-69
2022/11/05 02:54:58;;;;;;;24.20;14.40;;;;;;;8.13;95.11;99903.03;106492;1246;139194;-69
2022/11/05 02:57:28;;;;;;;27.80;16.50;;;;;;;8.14;95.16;99906.23;106495;1250;99651;-69
2022/11/05 03:00:34;;;;;;;29.00;16.00;;;;;;;8.15;95.15;99912.74;106417;1254;139464;-69
2022/11/05 03:03:02;;;;;;;29.40;16.40;;;;;;;8.13;95.10;99914.09;106537;1250;96277;-69
2022/11/05 03:05:36;;;;;;;32.60;18.30;;;;;;;8.12;95.32;99915.36;106463;1245;94908;-68
2022/11/05 03:08:15;;;;;;;28.20;16.50;;;;;;;8.13;95.28;99920.50;106417;1242;138646;-68
2022/11/05 03:11:07;;;;;;;27.70;16.70;;;;;;;8.14;95.32;99924.34;106445;1255;98657;-68
2022/11/05 03:13:46;;;;;;;28.60;16.60;;;;;;;8.13;95.29;99931.71;106426;1253;138060;-69
2022/11/05 03:16:20;;;;;;;30.00;16.20;;;;;;;8.14;95.38;99937.88;106458;1239;96916;-67
2022/11/05 03:18:55;;;;;;;30.40;16.60;;;;;;;8.13;95.45;99946.80;106426;1253;139729;-67
2022/11/05 03:21:30;;;;;;;29.00;15.90;;;;;;;8.13;95.40;99947.36;106488;1252;108888;-67
2022/11/05 03:24:02;;;;;;;29.00;15.60;;;;;;;8.14;95.40;99956.25;106425;1239;138405;-67
2022/11/05 03:26:50;;;;;;;;;;;;;;;8.14;95.42;99959.58;106509;1254;107412;-67
2022/11/05 03:29:21;;;;;;;20.30;12.20;;;;;;;8.14;95.52;99969.20;106367;1245;96312;-67
2022/11/05 03:31:49;;;;;;;25.30;12.50;;;;;;;8.14;95.53;99967.77;106340;1239;139527;-67
2022/11/05 03:34:18;;;;;;;25.40;13.00;;;;;;;8.16;95.59;99975.38;106428;1236;109208;-68
2022/11/05 03:36:49;;;;;;;26.90;14.20;;;;;;;8.15;95.63;99983.38;106391;1250;138704;-67
2022/11/05 03:39:20;;;;;;;23.80;14.10;;;;;;;8.17;95.73;99984.92;106428;1238;107913;-68
2022/11/05 03:41:50;;;;;;;21.00;13.10;;;;;;;8.19;95.70;99988.23;106340;1251;138380;-68
2022/11/05 03:44:23;;;;;;;26.00;14.20;;;;;;;8.21;95.65;99994.02;106499;1244;96728;-68
2022/11/05 03:46:52;;;;;;;28.20;13.50;;;;;;;8.22;95.73;99998.58;106435;1248;111167;-69
2022/11/05 03:49:22;;;;;;;26.60;13.80;;;;;;;8.24;95.84;100002.59;106377;1240;137958;-69
2022/11/05 03:51:57;;;;;;;23.40;13.90;;;;;;;8.25;95.88;100001.98;106490;1234;108276;-68
2022/11/05 03:54:22;;;;;;;18.40;10.30;;;;;;;8.27;96.03;100002.80;106347;1251;138586;-68
2022/11/05 03:57:08;;;;;;;19.40;11.50;;;;;;;8.29;96.07;100008.42;106425;1248;98349;-68
2022/11/05 03:59:43;;;;;;;21.30;12.00;;;;;;;8.31;96.36;100012.05;106461;1238;110050;-69
2022/11/05 04:02:10;;;;;;;21.50;12.20;;;;;;;8.33;96.45;100015.75;106528;1250;98526;-69
2022/11/05 04:04:35;;;;;;;18.90;10.80;;;;;;;8.35;96.46;100023.82;106408;1243;95366;-69
2022/11/05 04:15:14;;;;;;;12.20;8.50;;;;;;;8.45;96.83;100038.15;106476;1242;97960;-68
2022/11/05 04:17:39;;;;;;;12.70;8.20;;;;;;;8.48;96.89;100039.50;106471;1245;96318;-68
2022/11/05 04:25:44;;;;;;;10.10;6.80;;;;;;;8.54;97.13;100043.14;106326;1240;138019;-68
2022/11/05 04:28:10;;;;;;;9.20;6.20;;;;;;;8.55;97.23;100047.70;106511;1246;96322;-69
2022/11/05 04:30:35;;;;;;;7.90;5.30;;;;;;;8.57;97.17;100048.67;106406;1238;139355;-69
2022/11/05 04:33:09;;;;;;;11.50;6.20;;;;;;;8.58;97.19;100053.83;106544;1249;96393;-68
2022/11/05 04:35:46;;;;;;;7.50;4.40;;;;;;;8.60;97.31;100053.73;106492;1251;99604;-68
2022/11/05 04:38:17;;;;;;;7.60;4.20;;;;;;;8.61;97.37;100056.34;106492;1238;109098;-68
2022/11/05 04:40:43;;;;;;;10.90;4.90;;;;;;;8.62;97.41;100057.38;106534;1241;96375;-68
2022/11/05 04:43:14;;;;;;;6.30;4.40;;;;;;;8.61;97.49;100059.16;106399;1240;138027;-68
2022/11/05 04:45:39;;;;;;;5.00;3.40;;;;;;;8.62;97.55;100062.90;106453;1240;109564;-70
2022/11/05 04:48:05;;;;;;;7.70;3.30;;;;;;;8.62;97.78;100059.48;106340;1245;138591;-68
2022/11/05 04:50:31;;;;;;;5.60;3.50;;;;;;;8.63;98.11;100063.20;106545;1250;96261;-69
2022/11/05 04:52:56;;;;;;;5.60;3.20;;;;;;;8.63;98.11;100065.16;106509;1255;96508;-68
2022/11/05 04:55:22;;;;;;;6.30;4.00;;;;;;;8.63;98.18;100074.78;106425;1248;139570;-68
2022/11/05 04:57:51;;;;;;;4.00;3.30;;;;;;;8.63;98.37;100081.88;106538;1239;96389;-69
2022/11/05 05:00:18;;;;;;;4.20;3.10;;;;;;;8.62;98.36;100088.68;106375;1245;138694;-68
2022/11/05 05:02:44;;;;;;;4.80;3.00;;;;;;;8.62;98.48;100086.92;106557;1251;96362;-69
2022/11/05 05:05:09;;;;;;;4.30;3.50;;;;;;;8.63;98.57;100091.34;106471;1245;96311;-69
2022/11/05 05:07:34;;;;;;;5.10;3.60;;;;;;;8.64;98.83;100100.55;106519;1251;137780;-69
2022/11/05 05:10:01;;;;;;;5.10;3.20;;;;;;;8.63;98.96;100110.58;106543;1240;96339;-68
2022/11/05 05:12:27;;;;;;;4.30;3.40;;;;;;;8.63;98.91;100115.22;106429;1256;138663;-68
2022/11/05 05:14:52;;;;;;;5.00;3.00;;;;;;;8.62;99.03;100117.36;106642;1249;96277;-69
2022/11/05 05:17:17;;;;;;;4.50;3.30;;;;;;;8.62;99.21;100121.48;106490;1239;96738;-68
2022/11/05 05:22:27;;;;;;;5.70;3.60;;;;;;;8.62;99.32;100114.87;106476;1240;111131;-67
2022/11/05 05:24:53;;;;;;;9.30;4.30;;;;;;;8.61;99.43;100121.34;106294;1239;139029;-67
2022/11/05 05:27:19;;;;;;;10.20;3.10;;;;;;;8.60;99.39;100123.35;106553;1250;98688;-67
2022/11/05 05:29:44;;;;;;;5.60;3.30;;;;;;;8.59;99.36;100121.06;106621;1240;96465;-68
2022/11/05 05:32:09;;;;;;;6.80;3.70;;;;;;;8.61;99.52;100130.27;106562;1240;138100;-68
2022/11/05 05:34:35;;;;;;;6.80;3.50;;;;;;;8.60;99.54;100134.55;106681;1254;96294;-67
2022/11/05 05:37:00;;;;;;;7.30;3.70;;;;;;;8.60;99.55;100136.89;106512;1245;138320;-67
2022/11/05 05:39:26;;;;;;;13.00;3.60;;;;;;;8.59;99.59;100147.25;106664;1239;96263;-67
2022/11/05 05:41:51;;;;;;;7.00;3.00;;;;;;;8.58;99.81;100150.85;106500;1254;139502;-67
2022/11/05 05:44:17;;;;;;;4.70;2.60;;;;;;;8.57;99.65;100163.90;106696;1249;96369;-67
2022/11/05 05:46:42;;;;;;;3.80;2.70;;;;;;;8.57;99.61;100177.64;106644;1255;96273;-67
2022/11/05 05:49:10;;;;;;;4.10;2.70;;;;;;;8.55;99.56;100184.11;106506;1240;138169;-67
2022/11/05 05:51:35;;;;;;;8.10;2.20;;;;;;;8.54;99.59;100197.86;106659;1245;96557;-67
2022/11/05 05:54:00;;;;;;;6.30;2.10;;;;;;;8.53;99.80;100195.08;106519;1240;138171;-66
2022/11/05 05:56:25;;;;;;;2.80;1.90;;;;;;;8.50;99.76;100195.55;106491;1250;97721;-66
2022/11/05 05:58:51;;;;;;;6.00;2.00;;;;;;;8.48;99.72;100203.81;106448;1238;97329;-67
2022/11/05 06:01:17;;;;;;;4.40;1.70;;;;;;;8.46;99.69;100207.10;106362;1240;137901;-66
2022/11/05 06:03:42;;;;;;;7.40;2.30;;;;;;;8.44;99.55;100211.09;106476;1232;96340;-66
2022/11/05 06:06:12;;;;;;;4.20;2.40;;;;;;;8.43;99.46;100213.29;106595;1248;139263;-66
2022/11/05 06:08:37;;;;;;;4.10;1.80;;;;;;;8.41;99.52;100217.27;106469;1236;96272;-66
2022/11/05 06:11:03;;;;;;;5.40;1.70;;;;;;;8.39;99.43;100221.98;106429;1239;96421;-65
2022/11/05 06:13:28;;;;;;;5.90;2.30;;;;;;;8.37;99.29;100228.14;106505;1255;138080;-66
2022/11/05 06:16:01;;;;;;;2.30;1.60;;;;;;;8.35;99.23;100244.22;106507;1248;96399;-66
2022/11/05 06:18:27;;;;;;;4.60;1.50;;;;;;;8.35;99.41;100244.79;106214;1233;140363;-66
2022/11/05 06:20:54;;;;;;;6.10;2.20;;;;;;;8.33;99.34;100250.71;108534;1249;94475;-67
2022/11/05 06:23:20;;;;;;;4.70;1.40;;;;;;;8.32;99.28;100261.95;107848;1243;96263;-67
2022/11/05 06:25:45;;;;;;;4.90;1.90;;;;;;;8.32;99.30;100262.48;106306;1238;139307;-67
2022/11/05 06:28:10;;;;;;;6.50;1.80;;;;;;;8.32;99.26;100261.61;106467;1240;96569;-67
2022/11/05 06:30:35;;;;;;;13.90;2.00;;;;;;;8.32;99.20;100266.94;106363;1245;138841;-67
2022/11/05 06:33:03;;;;;;;8.80;1.80;;;;;;;8.32;99.09;100263.02;106411;1232;96387;-66
2022/11/05 06:35:28;;;;;;;5.50;1.80;;;;;;;8.32;99.09;100272.64;106577;1245;96349;-66
2022/11/05 06:37:58;;;;;;;7.90;2.60;;;;;;;8.31;99.03;100275.52;106327;1239;140816;-66
2022/11/05 06:40:23;;;;;;;4.20;1.50;;;;;;;8.31;99.02;100282.83;106686;1240;99392;-66
2022/11/05 06:42:51;;;;;;;7.40;1.60;;;;;;;8.32;99.06;100290.61;106561;1240;138394;-65
2022/11/05 06:45:16;;;;;;;4.00;2.00;;;;;;;8.33;99.00;100294.52;106758;1240;96367;-66
2022/11/05 06:47:42;;;;;;;6.60;1.50;;;;;;;8.33;99.05;100288.46;106745;1240;96264;-66
2022/11/05 06:50:07;;;;;;;7.40;2.20;;;;;;;8.34;98.98;100287.36;106588;1240;139110;-66
2022/11/05 06:52:32;;;;;;;5.50;2.00;;;;;;;8.35;98.95;100294.45;106668;1240;96373;-65
2022/11/05 06:54:58;;;;;;;8.20;2.10;;;;;;;8.37;99.05;100294.19;106501;1247;139385;-66
2022/11/05 06:57:23;;;;;;;9.20;2.20;;;;;;;8.39;98.95;100298.58;106610;1248;96866;-66
2022/11/05 06:59:48;;;;;;;10.60;2.50;;;;;;;8.41;98.84;100311.83;106632;1240;139148;-66
2022/11/05 07:02:15;;;;;;;8.10;2.30;;;;;;;8.42;98.86;100317.47;106615;1236;96465;-66
2022/11/05 07:04:40;;;;;;;5.50;1.90;;;;;;;8.44;98.82;100318.84;106668;1233;96240;-66
2022/11/05 07:07:05;;;;;;;8.50;1.80;;;;;;;8.46;98.80;100326.76;106536;1242;140259;-65
2022/11/05 07:09:31;;;;;;;5.80;1.70;;;;;;;8.47;98.84;100332.77;106614;1245;96295;-66
2022/11/05 07:11:56;;;;;;;7.10;1.80;;;;;;;8.50;98.76;100344.95;106540;1240;139452;-66
2022/11/05 07:14:21;;;;;;;7.60;2.10;;;;;;;8.52;98.85;100340.95;106602;1239;96362;-66
2022/11/05 07:16:47;;;;;;;8.00;2.60;;;;;;;8.54;98.75;100341.21;106515;1240;96223;-65
2022/11/05 07:19:12;;;;;;;6.80;1.90;;;;;;;8.58;98.82;100338.40;106378;1238;139615;-66
2022/11/05 07:21:37;;;;;;;8.40;2.00;;;;;;;8.60;98.81;100341.16;106482;1238;96283;-65
2022/11/05 07:24:04;;;;;;;7.90;2.00;;;;;;;8.65;98.79;100349.70;106464;1239;138364;-65
2022/11/05 07:26:29;;;;;;;7.90;1.80;;;;;;;8.69;98.71;100356.48;106425;1234;108476;-65
2022/11/05 07:28:54;;;;;;;13.70;2.10;;;;;;;8.72;98.74;100368.98;106403;1249;96327;-66
2022/11/05 07:31:20;;;;;;;6.60;2.20;;;;;;;8.72;98.62;100363.28;106371;1239;138599;-66
2022/11/05 07:33:45;;;;;;;10.10;2.20;;;;;;;8.72;98.58;100356.70;106533;1240;96261;-67
2022/11/05 07:36:11;;;;;;;10.20;2.20;;;;;;;8.72;98.48;100358.31;106422;1232;138460;-66
2022/11/05 07:38:36;;;;;;;7.40;2.20;;;;;;;8.69;98.41;100353.98;106522;1245;96380;-66
2022/11/05 07:41:02;;;;;;;5.50;2.10;;;;;;;8.69;98.35;100360.40;106432;1240;96241;-66
2022/11/05 07:43:27;;;;;;;7.00;2.90;;;;;;;8.69;98.22;100369.83;106337;1239;140091;-67
2022/11/05 07:45:52;;;;;;;12.10;4.00;;;;;;;8.70;98.37;100376.92;106489;1245;94832;-68
2022/11/05 07:48:20;;;;;;;12.00;3.20;;;;;;;8.70;98.13;100374.27;106522;1252;138634;-69
2022/11/05 07:50:45;;;;;;;6.00;2.70;;;;;;;8.70;98.13;100381.36;106486;1240;99022;-67
2022/11/05 07:53:12;;;;;;;8.00;2.70;;;;;;;8.70;98.05;100379.75;106427;1239;97625;-68
2022/11/05 07:55:42;;;;;;;12.50;3.00;;;;;;;8.71;98.07;100384.88;106472;1238;138702;-68
2022/11/05 07:58:08;;;;;;;12.20;3.70;;;;;;;8.73;97.98;100384.27;106737;1240;96284;-68
2022/11/05 08:00:34;;;;;;;13.00;3.60;;;;;;;8.76;97.95;100380.95;106573;1238;139102;-68
2022/11/05 08:03:09;;;;;;;9.70;3.60;;;;;;;8.80;98.03;100382.91;106767;1237;96391;-68
2022/11/05 08:05:40;;;;;;;10.10;3.20;;;;;;;8.85;98.00;100384.88;106646;1240;96267;-68
2022/11/05 08:08:07;;;;;;;11.60;3.80;;;;;;;8.89;97.96;100382.59;106576;1255;139080;-67
2022/11/05 08:10:33;;;;;;;9.80;3.70;;;;;;;8.95;97.97;100386.61;106687;1247;109275;-68
2022/11/05 08:12:59;;;;;;;12.80;4.40;;;;;;;8.98;97.99;100395.73;106584;1248;138701;-68
2022/11/05 08:15:25;;;;;;;12.00;4.10;;;;;;;9.01;97.93;100400.42;106690;1239;96266;-68
2022/11/05 08:18:06;;;;;;;9.80;4.00;;;;;;;9.04;97.86;100405.28;106562;1248;138962;-67
2022/11/05 08:20:32;;;;;;;9.90;4.20;;;;;;;9.10;97.89;100409.50;106612;1232;110112;-68
2022/11/05 08:22:58;;;;;;;11.90;4.40;;;;;;;9.13;97.86;100420.44;106635;1256;95524;-68
2022/11/05 08:25:24;;;;;;;10.80;5.60;;;;;;;9.16;97.82;100429.56;106463;1249;138028;-67
2022/11/05 08:27:57;;;;;;;11.70;4.90;;;;;;;9.19;97.84;100435.52;106450;1239;96645;-68
2022/11/05 08:30:22;;;;;;;11.80;5.30;;;;;;;9.24;97.81;100438.70;106297;1240;139672;-67
2022/11/05 08:32:47;;;;;;;12.80;5.90;;;;;;;9.26;97.70;100447.71;106285;1240;96555;-67
2022/11/05 08:35:14;;;;;;;15.10;6.00;;;;;;;9.25;97.56;100447.39;106441;1256;96298;-67
2022/11/05 08:37:39;;;;;;;12.30;5.60;;;;;;;9.25;97.55;100455.06;106267;1250;137868;-68
2022/11/05 08:40:05;;;;;;;14.40;5.80;;;;;;;9.24;97.54;100460.45;106352;1255;97792;-68
2022/11/05 08:42:31;;;;;;;13.50;5.90;;;;;;;9.24;97.40;100462.60;106719;1240;138690;-70
2022/11/05 08:44:56;;;;;;;14.60;6.00;;;;;;;9.24;97.43;100467.23;106496;1240;96389;-68
2022/11/05 08:47:21;;;;;;;15.00;6.10;;;;;;;9.24;97.31;100476.29;106435;1240;98849;-65
2022/11/05 08:49:47;;;;;;;19.70;5.80;;;;;;;9.27;97.33;100479.05;106319;1249;138748;-66
2022/11/05 08:52:12;;;;;;;20.10;6.00;;;;;;;9.26;97.19;100487.09;106419;1248;96327;-65
2022/11/05 08:54:37;;;;;;;11.40;5.50;;;;;;;9.27;97.18;100482.98;106418;1238;138111;-67
2022/11/05 08:57:03;;;;;;;21.60;9.70;;;;;;;9.28;97.14;100491.15;106411;1238;95285;-66
2022/11/05 08:59:28;;;;;;;14.50;6.10;;;;;;;9.29;97.03;100488.92;106437;1240;96334;-67
2022/11/05 09:01:54;;;;;;;14.10;5.80;;;;;;;9.31;96.97;100497.24;106277;1246;138526;-66
2022/11/05 09:04:19;;;;;;;17.40;6.00;;;;;;;9.33;96.82;100500.02;106357;1239;96236;-66
2022/11/05 09:06:45;;;;;;;14.50;7.30;;;;;;;9.36;96.76;100506.86;106346;1242;139532;-67
2022/11/05 09:09:10;;;;;;;22.20;6.00;;;;;;;9.40;96.92;100511.87;106347;1246;96286;-66
2022/11/05 09:11:35;;;;;;;12.60;5.50;;;;;;;9.41;96.71;100513.05;106490;1248;96579;-65
2022/11/05 09:14:01;;;;;;;14.40;5.60;;;;;;;9.43;96.76;100521.90;106302;1236;138266;-67
2022/11/05 09:16:26;;;;;;;12.30;5.80;;;;;;;9.45;96.58;100529.49;106432;1240;96321;-66
2022/11/05 09:18:52;;;;;;;15.80;6.40;;;;;;;9.44;96.51;100530.42;106335;1240;139975;-68
2022/11/05 09:21:19;;;;;;;23.30;7.60;;;;;;;9.43;96.46;100535.27;106460;1247;95134;-69
2022/11/05 09:23:45;;;;;;;15.40;6.60;;;;;;;9.44;96.49;100539.86;106516;1248;96355;-69
2022/11/05 09:26:12;;;;;;;17.90;7.00;;;;;;;9.46;96.44;100546.94;106505;1248;137734;-69
2022/11/05 09:28:38;;;;;;;26.70;6.50;;;;;;;9.48;96.31;100550.61;106448;1240;96260;-68
2022/11/05 09:31:06;;;;;;;20.20;6.90;;;;;;;9.50;96.35;100551.04;106533;1246;140223;-68
2022/11/05 09:33:33;;;;;;;16.60;6.60;;;;;;;9.50;96.16;100553.02;106489;1238;110369;-69
2022/11/05 09:35:59;;;;;;;13.40;6.60;;;;;;;9.49;96.10;100547.70;106360;1242;141104;-69
2022/11/05 09:38:24;;;;;;;19.70;6.60;;;;;;;9.48;95.96;100549.02;106491;1246;98596;-69
2022/11/05 09:41:07;;;;;;;14.70;6.10;;;;;;;9.48;95.92;100550.60;106505;1232;96493;-68
2022/11/05 09:43:35;;;;;;;22.30;7.70;;;;;;;9.53;95.81;100549.16;106388;1240;139076;-67
2022/11/05 09:46:10;;;;;;;14.70;6.40;;;;;;;9.58;95.85;100552.52;106623;1255;99989;-68
2022/11/05 09:48:38;;;;;;;35.30;13.80;;;;;;;9.60;95.68;100554.20;106475;1246;138006;-68
2022/11/05 09:51:04;;;;;;;21.00;7.60;;;;;;;9.65;95.69;100564.19;106735;1240;96288;-68
2022/11/05 09:53:30;;;;;;;12.90;7.20;;;;;;;9.67;95.56;100564.25;106590;1239;98330;-68
2022/11/05 09:55:58;;;;;;;14.60;6.60;;;;;;;9.71;95.51;100564.48;106580;1246;138313;-68
2022/11/05 09:58:42;;;;;;;16.10;6.80;;;;;;;9.72;95.31;100566.90;106679;1254;108043;-68
2022/11/05 10:01:20;;;;;;;15.50;7.50;;;;;;;9.73;95.29;100566.67;106536;1248;138965;-68
2022/11/05 10:03:49;;;;;;;19.70;7.80;;;;;;;9.78;95.22;100569.70;106600;1247;96271;-68
2022/11/05 10:06:21;;;;;;;18.40;7.70;;;;;;;9.83;95.17;100578.08;106657;1247;138836;-67
2022/11/05 10:09:28;;;;;;;20.60;8.20;;;;;;;9.83;94.97;100577.34;106833;1246;98898;-67
2022/11/05 10:12:00;;;;;;;22.20;8.40;;;;;;;9.84;95.06;100583.20;106156;1252;139922;-67
2022/11/05 10:14:29;;;;;;;25.90;8.30;;;;;;;9.86;94.95;100581.70;106669;1248;96208;-66
2022/11/05 10:17:14;;;;;;;19.10;6.90;;;;;;;9.84;94.73;100585.35;106754;1246;96273;-69
2022/11/05 10:19:46;;;;;;;19.50;8.00;;;;;;;9.83;94.66;100589.13;106554;1248;138822;-67
2022/11/05 10:22:17;;;;;;;29.60;12.10;;;;;;;9.80;94.44;100592.13;106781;1246;100042;-67
2022/11/05 10:24:46;;;;;;;23.90;11.90;;;;;;;9.78;94.31;100592.02;106628;1248;139412;-67
2022/11/05 10:27:22;;;;;;;24.70;8.90;;;;;;;9.80;94.48;100593.34;106723;1232;96343;-67
2022/11/05 10:29:49;;;;;;;27.20;9.40;;;;;;;9.82;94.29;100593.29;106606;1246;138822;-68
2022/11/05 10:32:37;;;;;;;23.90;7.30;;;;;;;9.81;94.01;100593.48;106794;1246;96238;-66
2022/11/05 10:35:06;;;;;;;16.30;6.20;;;;;;;9.77;93.80;100591.50;106778;1250;99520;-67
2022/11/05 10:37:33;;;;;;;16.70;7.10;;;;;;;9.77;93.69;100599.19;106754;1246;138032;-67
2022/11/05 10:39:59;;;;;;;17.10;6.10;;;;;;;9.76;93.64;100606.34;106725;1246;96286;-67
2022/11/05 10:42:48;;;;;;;32.20;7.10;;;;;;;9.78;93.58;100610.92;106650;1246;138771;-68
2022/11/05 10:45:27;;;;;;;18.50;6.50;;;;;;;9.81;93.47;100611.72;106727;1246;109776;-67
2022/11/05 10:48:17;;;;;;;22.30;5.70;;;;;;;9.83;93.36;100614.67;106708;1250;138657;-67
2022/11/05 10:50:43;;;;;;;16.10;5.40;;;;;;;9.84;93.20;100618.89;106727;1242;107958;-67
2022/11/05 10:53:15;;;;;;;10.10;4.80;;;;;;;9.82;93.00;100624.85;106711;1254;96140;-67
2022/11/05 10:55:52;;;;;;;23.70;5.10;;;;;;;9.82;92.97;100623.78;106624;1249;137855;-66
2022/11/05 10:58:22;;;;;;;18.00;4.90;;;;;;;9.83;92.79;100628.23;106802;1254;109403;-68
2022/11/05 11:00:50;;;;;;;28.40;12.70;;;;;;;9.85;92.72;100637.42;106647;1246;137990;-68
2022/11/05 11:03:42;;;;;;;22.20;5.70;;;;;;;9.86;92.69;100644.17;106750;1232;106861;-68
2022/11/05 11:06:38;;;;;;;23.40;6.30;;;;;;;9.83;92.37;100645.15;106653;1254;138805;-67
2022/11/05 11:09:07;;;;;;;19.10;7.20;;;;;;;9.83;92.18;100647.84;106787;1246;95148;-67
2022/11/05 11:11:40;;;;;;;10.90;4.30;;;;;;;9.84;92.27;100648.50;106750;1246;109026;-67
2022/11/05 11:14:11;;;;;;;15.80;4.20;;;;;;;9.86;91.97;100654.69;106639;1247;138268;-67
2022/11/05 11:17:37;;;;;;;11.40;4.50;;;;;;;9.87;91.81;100656.26;106621;1246;107187;-67
2022/11/05 11:20:26;;;;;;;19.90;4.40;;;;;;;9.84;91.49;100656.89;106471;1241;138437;-68
2022/11/05 11:23:02;;;;;;;13.30;4.40;;;;;;;9.88;91.59;100655.31;106710;1240;96356;-67
2022/11/05 11:25:39;;;;;;;10.90;3.80;;;;;;;9.91;91.46;100657.69;106528;1246;138393;-68
2022/11/05 11:28:06;;;;;;;19.10;4.80;;;;;;;9.93;91.31;100656.70;106630;1248;99838;-66
2022/11/05 11:30:33;;;;;;;20.60;4.00;;;;;;;9.98;91.44;100655.82;106556;1240;139535;-66
2022/11/05 11:33:06;;;;;;;16.70;4.40;;;;;;;10.02;91.42;100651.52;106655;1239;96367;-66
2022/11/05 11:35:36;;;;;;;24.50;4.10;;;;;;;10.05;91.34;100653.16;106540;1240;96456;-65
2022/11/05 11:38:03;;;;;;;35.60;13.20;;;;;;;10.09;91.24;100655.16;106485;1240;138676;-66
2022/11/05 11:40:35;;;;;;;25.00;10.70;;;;;;;10.14;91.19;100658.36;106561;1236;96351;-66
2022/11/05 11:43:05;;;;;;;17.20;4.80;;;;;;;10.15;91.10;100657.95;106443;1233;138575;-66
2022/11/05 11:45:35;;;;;;;13.40;3.40;;;;;;;10.16;90.92;100659.70;106626;1238;96343;-65
2022/11/05 11:48:05;;;;;;;15.30;4.40;;;;;;;10.13;90.73;100663.23;106523;1237;139044;-65
2022/11/05 11:50:30;;;;;;;15.50;3.80;;;;;;;10.13;90.60;100673.94;106598;1233;109728;-65
2022/11/05 11:53:25;;;;;;;20.80;4.20;;;;;;;10.11;90.38;100678.29;106621;1246;96370;-67
2022/11/05 11:56:05;;;;;;;17.70;3.50;;;;;;;10.13;90.56;100678.40;106496;1240;139154;-66
2022/11/05 11:58:42;;;;;;;17.70;3.00;;;;;;;10.18;90.32;100681.77;106558;1238;96274;-67
2022/11/05 12:01:52;;;;;;;13.80;3.40;;;;;;;10.16;90.11;100683.27;106494;1238;138126;-66
2022/11/05 12:04:32;;;;;;;23.10;4.20;;;;;;;10.19;90.27;100679.41;106565;1233;109814;-66
2022/11/05 12:07:33;;;;;;;14.40;3.40;;;;;;;10.24;90.14;100674.57;106551;1246;138805;-68
2022/11/05 12:10:20;;;;;;;18.00;3.20;;;;;;;10.31;90.13;100673.02;106374;1252;107456;-67